createdAt,value
2023-03-02T00:01:33.107Z,100.00
2023-03-02T00:04:02.308Z,100.00
2023-03-02T00:06:31.478Z,100.00
2023-03-02T00:09:02.463Z,100.00
2023-03-02T00:11:31.597Z,100.00
2023-03-02T00:13:58.731Z,100.00
2023-03-02T00:16:25.483Z,100.00
2023-03-02T00:18:52.187Z,100.00
2023-03-02T00:21:18.758Z,100.00
2023-03-02T00:23:45.467Z,100.00
2023-03-02T00:26:12.107Z,100.00
2023-03-02T00:28:38.777Z,100.00
2023-03-02T00:31:06.726Z,100.00
2023-03-02T00:33:34.354Z,100.00
2023-03-02T00:36:02.066Z,100.00
2023-03-02T00:38:28.859Z,100.00
2023-03-02T00:40:56.334Z,100.00
2023-03-02T00:43:28.097Z,100.00
2023-03-02T00:45:55.328Z,100.00
2023-03-02T00:48:22.384Z,100.00
2023-03-02T00:50:49.000Z,100.00
2023-03-02T00:53:15.672Z,100.00
2023-03-02T00:55:42.233Z,100.00
2023-03-02T00:58:08.833Z,100.00
2023-03-02T01:00:37.931Z,100.00
2023-03-02T01:03:04.583Z,100.00
2023-03-02T01:05:31.248Z,100.00
2023-03-02T01:07:57.947Z,100.00
2023-03-02T01:10:24.527Z,100.00
2023-03-02T01:12:51.125Z,100.00
2023-03-02T01:15:17.763Z,100.00
2023-03-02T01:17:44.346Z,100.00
2023-03-02T01:20:12.696Z,100.00
2023-03-02T01:22:39.464Z,100.00
2023-03-02T01:25:06.919Z,100.00
2023-03-02T01:27:33.537Z,100.00
2023-03-02T01:30:00.218Z,100.00
2023-03-02T01:32:27.060Z,100.00
2023-03-02T01:34:53.637Z,100.00
2023-03-02T01:37:20.937Z,100.00
2023-03-02T01:39:47.527Z,100.00
2023-03-02T01:42:14.217Z,100.00
2023-03-02T01:44:46.666Z,100.00
2023-03-02T01:47:32.474Z,100.00
2023-03-02T01:50:00.278Z,100.00
2023-03-02T01:52:29.455Z,100.00
2023-03-02T01:55:01.970Z,100.00
2023-03-02T01:57:32.775Z,100.00
2023-03-02T02:00:10.474Z,100.00
2023-03-02T02:02:37.112Z,100.00
2023-03-02T02:05:04.317Z,100.00
2023-03-02T02:07:31.380Z,100.00
2023-03-02T02:09:58.796Z,100.00
2023-03-02T02:12:26.754Z,100.00
2023-03-02T02:14:55.144Z,100.00
2023-03-02T02:17:22.326Z,100.00
2023-03-02T02:20:19.648Z,100.00
2023-03-02T02:22:59.369Z,100.00
2023-03-02T02:25:53.047Z,100.00
2023-03-02T02:28:28.102Z,100.00
2023-03-02T02:31:10.960Z,100.00
2023-03-02T02:33:39.428Z,100.00
2023-03-02T02:36:12.991Z,100.00
2023-03-02T02:38:40.774Z,100.00
2023-03-02T02:41:15.120Z,100.00
2023-03-02T02:43:42.028Z,100.00
2023-03-02T02:46:11.788Z,100.00
2023-03-02T02:48:38.566Z,100.00
2023-03-02T02:51:08.904Z,100.00
2023-03-02T02:53:44.629Z,100.00
2023-03-02T02:56:13.109Z,100.00
2023-03-02T02:58:53.693Z,100.00
2023-03-02T03:01:26.350Z,100.00
2023-03-02T03:04:02.320Z,100.00
2023-03-02T03:06:42.324Z,100.00
2023-03-02T03:09:11.282Z,100.00
2023-03-02T03:11:41.574Z,100.00
2023-03-02T03:14:17.875Z,100.00
2023-03-02T03:16:46.683Z,100.00
2023-03-02T03:19:22.454Z,100.00
2023-03-02T03:21:52.171Z,100.00
2023-03-02T03:24:18.921Z,100.00
2023-03-02T03:26:45.607Z,100.00
2023-03-02T03:29:13.657Z,100.00
2023-03-02T03:31:40.402Z,100.00
2023-03-02T03:34:07.122Z,100.00
2023-03-02T03:36:34.410Z,100.00
2023-03-02T03:39:02.353Z,100.00
2023-03-02T03:41:28.950Z,100.00
2023-03-02T03:43:55.647Z,100.00
2023-03-02T03:46:22.462Z,100.00
2023-03-02T03:48:49.222Z,100.00
2023-03-02T03:51:16.027Z,100.00
2023-03-02T03:53:42.608Z,100.00
2023-03-02T03:56:09.890Z,100.00
2023-03-02T03:58:36.587Z,100.00
2023-03-02T04:01:04.019Z,100.00
2023-03-02T04:03:31.682Z,100.00
2023-03-02T04:05:58.306Z,100.00
2023-03-02T04:08:24.874Z,100.00
2023-03-02T04:10:51.521Z,100.00
2023-03-02T04:13:18.138Z,100.00
2023-03-02T04:15:46.947Z,100.00
2023-03-02T04:18:13.765Z,100.00
2023-03-02T04:20:40.434Z,100.00
2023-03-02T04:23:07.150Z,100.00
2023-03-02T04:25:33.780Z,100.00
2023-03-02T04:28:00.510Z,100.00
2023-03-02T04:30:27.644Z,100.00
2023-03-02T04:32:54.719Z,100.00
2023-03-02T04:35:21.533Z,100.00
2023-03-02T04:37:48.228Z,100.00
2023-03-02T04:40:17.429Z,100.00
2023-03-02T04:42:44.817Z,100.00
2023-03-02T04:45:12.985Z,100.00
2023-03-02T04:47:40.069Z,100.00
2023-03-02T04:50:08.238Z,100.00
2023-03-02T04:52:35.238Z,100.00
2023-03-02T04:55:02.068Z,100.00
2023-03-02T04:57:28.646Z,100.00
2023-03-02T04:59:55.252Z,100.00
2023-03-02T05:02:22.535Z,100.00
2023-03-02T05:04:49.193Z,100.00
2023-03-02T05:07:15.835Z,100.00
2023-03-02T05:09:42.562Z,100.00
2023-03-02T05:12:09.175Z,100.00
2023-03-02T05:14:35.885Z,100.00
2023-03-02T05:17:02.485Z,100.00
2023-03-02T05:19:29.232Z,100.00
2023-03-02T05:21:56.580Z,100.00
2023-03-02T05:24:23.194Z,100.00
2023-03-02T05:26:49.814Z,100.00
2023-03-02T05:29:16.449Z,100.00
2023-03-02T05:31:44.996Z,100.00
2023-03-02T05:34:13.798Z,100.00
2023-03-02T05:36:40.768Z,100.00
2023-03-02T05:39:08.671Z,100.00
2023-03-02T05:41:37.027Z,100.00
2023-03-02T05:44:04.369Z,100.00
2023-03-02T05:46:31.524Z,100.00
2023-03-02T05:48:58.415Z,100.00
2023-03-02T05:51:25.079Z,100.00
2023-03-02T05:53:51.667Z,100.00
2023-03-02T05:56:20.395Z,100.00
2023-03-02T05:58:47.013Z,100.00
2023-03-02T06:01:15.383Z,100.00
2023-03-02T06:03:43.394Z,100.00
2023-03-02T06:06:14.036Z,100.00
2023-03-02T06:08:42.167Z,100.00
2023-03-02T06:11:09.477Z,100.00
2023-03-02T06:13:36.995Z,100.00
2023-03-02T06:16:04.226Z,100.00
2023-03-02T06:18:31.198Z,100.00
2023-03-02T06:20:57.823Z,100.00
2023-03-02T06:23:24.435Z,100.00
2023-03-02T06:25:51.367Z,100.00
2023-03-02T06:28:21.910Z,100.00
2023-03-02T06:30:48.750Z,100.00
2023-03-02T06:33:18.123Z,100.00
2023-03-02T06:35:45.618Z,100.00
2023-03-02T06:38:12.372Z,100.00
2023-03-02T06:40:39.242Z,100.00
2023-03-02T06:43:05.890Z,100.00
2023-03-02T06:45:34.033Z,100.00
2023-03-02T06:48:01.640Z,100.00
2023-03-02T06:50:28.757Z,100.00
2023-03-02T06:52:55.408Z,100.00
2023-03-02T06:55:22.031Z,100.00
2023-03-02T06:57:48.733Z,100.00
2023-03-02T07:00:17.587Z,100.00
2023-03-02T07:02:45.311Z,94.42
2023-03-02T07:05:12.757Z,94.29
2023-03-02T07:07:39.609Z,93.26
2023-03-02T07:10:07.477Z,91.77
2023-03-02T07:12:34.363Z,86.57
2023-03-02T07:15:01.082Z,84.37
2023-03-02T07:17:28.107Z,80.15
2023-03-02T07:19:54.808Z,77.73
2023-03-02T07:22:21.860Z,74.10
2023-03-02T07:24:48.474Z,68.26
2023-03-02T07:27:15.126Z,67.97
2023-03-02T07:29:41.739Z,60.67
2023-03-02T07:32:10.204Z,55.87
2023-03-02T07:34:38.696Z,52.35
2023-03-02T07:37:07.831Z,51.99
2023-03-02T07:39:34.563Z,53.05
2023-03-02T07:42:03.048Z,53.67
2023-03-02T07:44:30.131Z,52.38
2023-03-02T07:46:56.990Z,50.30
2023-03-02T07:49:23.755Z,46.49
2023-03-02T07:51:50.445Z,44.99
2023-03-02T07:54:17.131Z,41.99
2023-03-02T07:56:44.687Z,39.06
2023-03-02T07:59:14.578Z,37.58
2023-03-02T08:01:41.231Z,34.39
2023-03-02T08:04:07.950Z,35.38
2023-03-02T08:06:34.514Z,33.83
2023-03-02T08:09:05.123Z,32.79
2023-03-02T08:11:32.309Z,32.41
2023-03-02T08:14:03.148Z,32.24
2023-03-02T08:16:30.315Z,30.90
2023-03-02T08:18:59.665Z,29.17
2023-03-02T08:21:27.615Z,33.73
2023-03-02T08:23:54.363Z,30.10
2023-03-02T08:26:21.695Z,31.57
2023-03-02T08:28:48.708Z,32.17
2023-03-02T08:31:15.667Z,32.37
2023-03-02T08:33:43.421Z,33.53
2023-03-02T08:36:14.534Z,35.11
2023-03-02T08:38:41.538Z,36.86
2023-03-02T08:41:12.825Z,36.70
2023-03-02T08:43:39.796Z,35.65
2023-03-02T08:46:07.463Z,34.88
2023-03-02T08:48:34.383Z,34.88
2023-03-02T08:51:05.770Z,32.47
2023-03-02T08:53:35.497Z,34.37
2023-03-02T08:56:02.276Z,33.70
2023-03-02T08:58:29.340Z,33.24
2023-03-02T09:00:56.029Z,34.17
2023-03-02T09:03:22.765Z,32.61
2023-03-02T09:05:49.475Z,33.57
2023-03-02T09:08:16.054Z,34.09
2023-03-02T09:10:42.751Z,31.41
2023-03-02T09:13:09.445Z,33.54
2023-03-02T09:15:36.110Z,34.29
2023-03-02T09:18:02.782Z,33.88
2023-03-02T09:20:29.490Z,34.27
2023-03-02T09:22:56.170Z,34.13
2023-03-02T09:25:22.814Z,34.20
2023-03-02T09:27:49.519Z,32.95
2023-03-02T09:30:16.385Z,31.84
2023-03-02T09:32:43.951Z,36.48
2023-03-02T09:35:11.115Z,35.63
2023-03-02T09:37:38.978Z,35.10
2023-03-02T09:40:15.722Z,32.71
2023-03-02T09:43:08.357Z,32.83
2023-03-02T09:45:47.258Z,37.12
2023-03-02T09:48:31.779Z,34.01
2023-03-02T09:51:41.906Z,33.40
2023-03-02T09:54:27.126Z,34.30
2023-03-02T09:56:57.377Z,33.06
2023-03-02T09:59:42.037Z,33.39
2023-03-02T10:02:23.882Z,32.79
2023-03-02T10:05:00.854Z,33.60
2023-03-02T10:07:31.234Z,30.95
2023-03-02T10:10:07.044Z,32.62
2023-03-02T10:13:02.914Z,34.00
2023-03-02T10:15:52.713Z,30.39
2023-03-02T10:18:21.107Z,35.85
2023-03-02T10:20:56.462Z,33.70
2023-03-02T10:23:31.377Z,31.19
2023-03-02T10:26:29.447Z,30.16
2023-03-02T10:29:06.276Z,32.42
2023-03-02T10:31:33.824Z,35.14
2023-03-02T10:34:01.238Z,33.78
2023-03-02T10:36:31.054Z,32.22
2023-03-02T10:39:00.442Z,30.52
2023-03-02T10:41:41.209Z,33.88
2023-03-02T10:44:20.221Z,31.49
2023-03-02T10:46:47.149Z,30.50
2023-03-02T10:49:35.001Z,30.18
2023-03-02T10:52:01.563Z,32.84
2023-03-02T10:54:30.416Z,32.75
2023-03-02T10:57:05.889Z,32.50
2023-03-02T10:59:41.088Z,30.05
2023-03-02T11:02:23.111Z,34.34
2023-03-02T11:04:59.143Z,33.28
2023-03-02T11:07:28.592Z,35.17
2023-03-02T11:10:03.555Z,33.29
2023-03-02T11:12:32.699Z,34.31
2023-03-02T11:15:24.130Z,32.26
2023-03-02T11:18:06.162Z,34.16
2023-03-02T11:20:47.243Z,37.24
2023-03-02T11:23:23.744Z,34.24
2023-03-02T11:25:58.580Z,36.07
2023-03-02T11:28:34.407Z,37.27
2023-03-02T11:31:04.560Z,32.63
2023-03-02T11:33:52.154Z,35.55
2023-03-02T11:36:24.778Z,35.70
2023-03-02T11:38:55.324Z,38.11
2023-03-02T11:41:29.915Z,37.43
2023-03-02T11:44:01.771Z,38.32
2023-03-02T11:46:31.107Z,36.50
2023-03-02T11:49:03.573Z,34.95
2023-03-02T11:51:37.756Z,38.84
2023-03-02T11:54:21.506Z,40.09
2023-03-02T11:56:48.196Z,38.29
2023-03-02T11:59:21.042Z,38.64
2023-03-02T12:01:51.664Z,37.36
2023-03-02T12:04:36.399Z,35.10
2023-03-02T12:07:23.251Z,38.99
2023-03-02T12:10:06.020Z,38.12
2023-03-02T12:12:57.760Z,40.18
2023-03-02T12:15:29.312Z,40.77
2023-03-02T12:17:56.015Z,38.70
2023-03-02T12:20:30.058Z,35.18
2023-03-02T12:23:21.868Z,35.38
2023-03-02T12:25:51.646Z,35.03
2023-03-02T12:28:37.693Z,36.37
2023-03-02T12:31:13.515Z,37.17
2023-03-02T12:33:52.426Z,36.88
2023-03-02T12:36:32.373Z,36.72
2023-03-02T12:39:21.394Z,37.21
2023-03-02T12:42:08.509Z,36.30
2023-03-02T12:44:44.563Z,37.15
2023-03-02T12:47:16.513Z,33.47
2023-03-02T12:50:27.453Z,37.07
2023-03-02T12:53:20.336Z,37.11
2023-03-02T12:55:46.970Z,37.10
2023-03-02T12:58:27.710Z,36.70
2023-03-02T13:01:00.621Z,36.24
2023-03-02T13:03:30.000Z,36.69
2023-03-02T13:06:14.432Z,39.43
2023-03-02T13:08:45.118Z,39.86
2023-03-02T13:11:12.283Z,38.29
2023-03-02T13:13:42.695Z,41.48
2023-03-02T13:16:18.592Z,38.58
2023-03-02T13:18:45.898Z,38.85
2023-03-02T13:21:14.928Z,41.43
2023-03-02T13:23:51.482Z,41.64
2023-03-02T13:26:57.408Z,41.47
2023-03-02T13:29:27.577Z,41.46
2023-03-02T13:31:55.136Z,42.85
2023-03-02T13:34:27.777Z,41.48
2023-03-02T13:36:57.329Z,42.13
2023-03-02T13:39:31.708Z,43.20
2023-03-02T13:42:03.350Z,43.91
2023-03-02T13:44:35.238Z,42.47
2023-03-02T13:47:02.952Z,40.52
2023-03-02T13:49:37.616Z,38.52
2023-03-02T13:52:08.407Z,40.68
2023-03-02T13:54:37.454Z,41.26
2023-03-02T13:57:05.829Z,42.70
2023-03-02T13:59:36.424Z,41.20
2023-03-02T14:02:03.413Z,41.38
2023-03-02T14:04:30.180Z,42.13
2023-03-02T14:06:56.922Z,45.34
2023-03-02T14:09:23.585Z,45.40
2023-03-02T14:11:53.345Z,44.04
2023-03-02T14:14:23.874Z,44.29
2023-03-02T14:16:51.173Z,44.48
2023-03-02T14:19:18.662Z,45.23
2023-03-02T14:21:46.353Z,45.12
2023-03-02T14:24:12.993Z,46.13
2023-03-02T14:26:46.397Z,45.63
2023-03-02T14:29:18.896Z,46.64
2023-03-02T14:31:48.550Z,46.62
2023-03-02T14:34:18.320Z,47.29
2023-03-02T14:36:47.627Z,49.16
2023-03-02T14:39:38.584Z,47.60
2023-03-02T14:42:10.043Z,47.81
2023-03-02T14:44:36.678Z,48.65
2023-03-02T14:47:03.556Z,50.72
2023-03-02T14:49:30.174Z,51.40
2023-03-02T14:52:17.398Z,50.29
2023-03-02T14:54:49.285Z,51.14
2023-03-02T14:57:20.301Z,51.66
2023-03-02T14:59:49.401Z,52.54
2023-03-02T15:02:25.645Z,52.90
2023-03-02T15:04:56.007Z,53.98
2023-03-02T15:07:24.690Z,53.95
2023-03-02T15:09:51.320Z,54.13
2023-03-02T15:12:18.348Z,53.81
2023-03-02T15:14:44.926Z,54.19
2023-03-02T15:17:11.555Z,54.31
2023-03-02T15:19:40.866Z,54.92
2023-03-02T15:22:07.604Z,54.99
2023-03-02T15:24:34.241Z,55.46
2023-03-02T15:27:00.872Z,56.69
2023-03-02T15:29:27.539Z,57.28
2023-03-02T15:31:56.577Z,56.31
2023-03-02T15:34:23.349Z,56.69
2023-03-02T15:36:49.957Z,56.16
2023-03-02T15:39:17.092Z,56.57
2023-03-02T15:41:43.924Z,57.11
2023-03-02T15:44:24.636Z,56.26
2023-03-02T15:46:55.761Z,57.26
2023-03-02T15:49:24.803Z,57.12
2023-03-02T15:51:52.178Z,58.20
2023-03-02T15:54:19.414Z,58.04
2023-03-02T15:56:49.610Z,58.39
2023-03-02T15:59:16.270Z,58.80
2023-03-02T16:01:42.864Z,59.25
2023-03-02T16:04:10.045Z,58.98
2023-03-02T16:06:36.650Z,59.49
2023-03-02T16:09:03.338Z,61.46
2023-03-02T16:11:29.951Z,63.16
2023-03-02T16:13:56.565Z,65.07
2023-03-02T16:16:23.345Z,65.83
2023-03-02T16:18:51.514Z,67.24
2023-03-02T16:21:18.539Z,67.98
2023-03-02T16:23:45.566Z,69.34
2023-03-02T16:26:15.682Z,71.08
2023-03-02T16:28:42.939Z,72.09
2023-03-02T16:31:14.362Z,73.88
2023-03-02T16:33:41.810Z,75.22
2023-03-02T16:36:09.639Z,74.92
2023-03-02T16:38:36.966Z,74.78
2023-03-02T16:41:19.209Z,76.23
2023-03-02T16:43:51.451Z,77.25
2023-03-02T16:46:19.126Z,78.64
2023-03-02T16:48:47.677Z,79.95
2023-03-02T16:51:14.732Z,79.81
2023-03-02T16:53:41.884Z,81.03
2023-03-02T16:56:08.952Z,82.42
2023-03-02T16:58:38.283Z,84.07
2023-03-02T17:01:06.267Z,84.48
2023-03-02T17:03:33.162Z,84.99
2023-03-02T17:06:00.042Z,87.95
2023-03-02T17:08:26.715Z,89.05
2023-03-02T17:10:53.454Z,91.33
2023-03-02T17:13:20.335Z,92.33
2023-03-02T17:15:46.980Z,94.14
2023-03-02T17:18:13.645Z,95.76
2023-03-02T17:20:40.685Z,97.09
2023-03-02T17:23:07.324Z,97.42
2023-03-02T17:25:33.950Z,97.10
2023-03-02T17:28:00.616Z,97.66
2023-03-02T17:30:27.319Z,100.00
2023-03-02T17:32:54.000Z,100.00
2023-03-02T17:35:22.124Z,100.00
2023-03-02T17:37:49.019Z,100.00
2023-03-02T17:40:16.667Z,100.00
2023-03-02T17:42:43.280Z,100.00
2023-03-02T17:45:18.123Z,100.00
2023-03-02T17:47:45.577Z,100.00
2023-03-02T17:50:13.957Z,100.00
2023-03-02T17:52:41.196Z,100.00
2023-03-02T17:55:09.012Z,100.00
2023-03-02T17:57:35.930Z,100.00
2023-03-02T18:00:07.564Z,100.00
2023-03-02T18:02:34.161Z,100.00
2023-03-02T18:05:00.976Z,100.00
2023-03-02T18:07:27.958Z,100.00
2023-03-02T18:09:54.560Z,100.00
2023-03-02T18:12:21.134Z,100.00
2023-03-02T18:14:47.939Z,100.00
2023-03-02T18:17:15.062Z,100.00
2023-03-02T18:19:41.703Z,100.00
2023-03-02T18:22:08.286Z,100.00
2023-03-02T18:24:34.888Z,100.00
2023-03-02T18:27:01.445Z,100.00
2023-03-02T18:29:28.104Z,100.00
2023-03-02T18:31:55.181Z,100.00
2023-03-02T18:34:21.807Z,100.00
2023-03-02T18:36:48.393Z,100.00
2023-03-02T18:39:15.461Z,100.00
2023-03-02T18:41:42.905Z,100.00
2023-03-02T18:44:10.149Z,100.00
2023-03-02T18:46:36.822Z,100.00
2023-03-02T18:49:04.515Z,100.00
2023-03-02T18:51:31.344Z,100.00
2023-03-02T18:53:58.062Z,100.00
2023-03-02T18:56:27.616Z,100.00
2023-03-02T18:58:54.503Z,100.00
2023-03-02T19:01:22.274Z,100.00
2023-03-02T19:03:49.181Z,100.00
2023-03-02T19:06:16.573Z,100.00
2023-03-02T19:08:43.539Z,100.00
2023-03-02T19:11:11.707Z,100.00
2023-03-02T19:13:38.408Z,100.00
2023-03-02T19:16:05.859Z,100.00
2023-03-02T19:18:33.255Z,100.00
2023-03-02T19:21:00.691Z,100.00
2023-03-02T19:23:27.644Z,100.00
2023-03-02T19:25:54.241Z,100.00
2023-03-02T19:28:21.796Z,100.00
2023-03-02T19:30:49.661Z,100.00
2023-03-02T19:33:16.952Z,100.00
2023-03-02T19:35:44.708Z,100.00
2023-03-02T19:38:12.790Z,100.00
2023-03-02T19:40:40.469Z,100.00
2023-03-02T19:43:07.353Z,100.00
2023-03-02T19:45:36.234Z,100.00
2023-03-02T19:48:05.846Z,100.00
2023-03-02T19:50:33.016Z,100.00
2023-03-02T19:52:59.640Z,100.00
2023-03-02T19:55:27.340Z,100.00
2023-03-02T19:58:00.053Z,100.00
2023-03-02T20:00:29.335Z,100.00
2023-03-02T20:02:56.561Z,100.00
2023-03-02T20:05:23.897Z,100.00
2023-03-02T20:07:50.510Z,100.00
2023-03-02T20:10:30.219Z,100.00
2023-03-02T20:13:01.895Z,100.00
2023-03-02T20:15:33.051Z,100.00
2023-03-02T20:18:02.598Z,100.00
2023-03-02T20:20:30.937Z,100.00
2023-03-02T20:22:58.781Z,100.00
2023-03-02T20:25:25.886Z,100.00
2023-03-02T20:27:52.979Z,100.00
2023-03-02T20:30:24.727Z,100.00
2023-03-02T20:32:51.329Z,100.00
2023-03-02T20:35:18.024Z,100.00
2023-03-02T20:37:44.904Z,100.00
2023-03-02T20:40:13.193Z,100.00
2023-03-02T20:42:41.239Z,100.00
2023-03-02T20:45:09.428Z,100.00
2023-03-02T20:47:36.528Z,100.00
2023-03-02T20:50:06.519Z,100.00
2023-03-02T20:52:33.179Z,100.00
2023-03-02T20:54:59.836Z,100.00
2023-03-02T20:57:26.412Z,100.00
2023-03-02T20:59:53.013Z,100.00
2023-03-02T21:02:20.182Z,100.00
2023-03-02T21:04:47.193Z,100.00
2023-03-02T21:07:14.425Z,100.00
2023-03-02T21:09:42.118Z,100.00
2023-03-02T21:12:08.969Z,100.00
2023-03-02T21:14:35.700Z,100.00
2023-03-02T21:17:02.389Z,100.00
2023-03-02T21:19:29.588Z,100.00
2023-03-02T21:21:57.178Z,100.00
2023-03-02T21:24:24.166Z,100.00
2023-03-02T21:26:53.027Z,100.00
2023-03-02T21:29:23.100Z,100.00
2023-03-02T21:31:50.311Z,100.00
2023-03-02T21:34:18.956Z,100.00
2023-03-02T21:36:53.042Z,100.00
2023-03-02T21:39:23.661Z,100.00
2023-03-02T21:41:50.476Z,100.00
2023-03-02T21:44:17.132Z,100.00
2023-03-02T21:46:43.835Z,100.00
2023-03-02T21:49:16.200Z,100.00
2023-03-02T21:51:42.925Z,100.00
2023-03-02T21:54:09.606Z,100.00
2023-03-02T21:56:36.581Z,100.00
2023-03-02T21:59:04.037Z,100.00
2023-03-02T22:01:32.840Z,100.00
2023-03-02T22:04:00.657Z,100.00
2023-03-02T22:06:30.610Z,100.00
2023-03-02T22:08:58.097Z,100.00
2023-03-02T22:11:36.251Z,100.00
2023-03-02T22:14:12.089Z,100.00
2023-03-02T22:16:40.798Z,100.00
2023-03-02T22:19:22.411Z,100.00
2023-03-02T22:21:49.563Z,100.00
2023-03-02T22:24:28.891Z,100.00
2023-03-02T22:27:00.295Z,100.00
2023-03-02T22:29:33.567Z,100.00
2023-03-02T22:32:25.703Z,100.00
2023-03-02T22:34:55.440Z,100.00
2023-03-02T22:37:29.311Z,100.00
2023-03-02T22:39:59.845Z,100.00
2023-03-02T22:42:30.112Z,100.00
2023-03-02T22:45:26.145Z,100.00
2023-03-02T22:47:53.431Z,100.00
2023-03-02T22:50:25.892Z,100.00
2023-03-02T22:52:53.968Z,100.00
2023-03-02T22:55:42.227Z,100.00
2023-03-02T22:58:17.904Z,100.00
2023-03-02T23:00:44.531Z,100.00
2023-03-02T23:03:23.350Z,100.00
2023-03-02T23:05:52.909Z,100.00
2023-03-02T23:08:28.624Z,100.00
2023-03-02T23:11:00.543Z,100.00
2023-03-02T23:13:38.727Z,100.00
2023-03-02T23:16:14.652Z,100.00
2023-03-02T23:18:43.077Z,100.00
2023-03-02T23:21:28.302Z,100.00
2023-03-02T23:23:55.362Z,100.00
2023-03-02T23:26:22.161Z,100.00
2023-03-02T23:28:50.486Z,100.00
2023-03-02T23:31:18.548Z,100.00
2023-03-02T23:33:45.420Z,100.00
2023-03-02T23:36:12.076Z,100.00
2023-03-02T23:38:39.452Z,100.00
2023-03-02T23:41:07.460Z,100.00
2023-03-02T23:43:35.504Z,100.00
2023-03-02T23:46:02.215Z,100.00
2023-03-02T23:48:28.855Z,100.00
2023-03-02T23:50:55.448Z,100.00
2023-03-02T23:53:22.068Z,100.00
2023-03-02T23:55:51.349Z,100.00
2023-03-02T23:58:18.130Z,100.00
